Bradfords Cross Roads, North Carolina
Current Conditions -  °F | °C
As of 3:35 PM on Thursday 29 Jan 2015 (Local Time) from KSVH Reporting Station
Overcast Overcast  
Wind Chill: 43°   Ceiling: 12000
Heat Index: 45°   Visibility: 10mi
Dew Point: 26°   Wind: 5mph
Humidity: 47%   Direction: 210°SSW
Pressure: 30.09"   Gusts: NA
Location:  35.8306°N, 80.9003°W
Report Text: KSVH 292035Z AUTO 21004KT 10SM OVC120 07/M03 A3009 RMK AO2 T00721035
Loading
Personal Weather Stations






























Interactive Weather Map New forecast layout! Learn more

10-Day Weather Forecast

Advertisements
Track Severe Weather on mobile